Terminal Aerodrome Forecast
Issued by NWS

Home | Current Version | Previous Version | Text Only | Print | Product List | Glossary On
Versions: 1 2 3 4 5 6 7 8 9 10 11 12
086
FTUS42 KTAE 082320
TAFDHN
TAF
KDHN 082320Z 0900/0924 29014G23KT P6SM FEW070
     FM090300 27011G18KT P6SM SKC
     FM091500 29018G26KT P6SM SCT250=

USA.gov is the U.S. government's official web portal to all federal, state and local government web resources and services.